Time;durP1;ratioP1;P1;durP2;ratioP2;P2;SDS_P1;SDS_P2;PMS_P1;PMS_P2;Temp;Humidity;BMP_temperature;BMP_pressure;BME280_temperature;BME280_humidity;BME280_pressure;Samples;Min_cycle;Max_cycle;Signal;HPM_P1;HPM_P2
2023/05/22 00:01:43;;;;;;;9.30;7.15;;;16.40;72.50;;;;;;5006055;28;20393;-62
2023/05/22 00:04:12;;;;;;;9.35;7.30;;;16.30;72.70;;;;;;5006955;28;20034;-62
2023/05/22 00:06:41;;;;;;;9.40;7.43;;;16.30;72.90;;;;;;5009591;28;20513;-62
2023/05/22 00:09:06;;;;;;;7.88;7.07;;;16.30;72.90;;;;;;5006732;28;20038;-63
2023/05/22 00:11:34;;;;;;;8.40;7.53;;;16.30;72.90;;;;;;5004127;28;20042;-63
2023/05/22 00:14:00;;;;;;;9.63;7.43;;;16.20;72.90;;;;;;5007945;28;20033;-63
2023/05/22 00:16:26;;;;;;;8.43;7.22;;;16.20;73.10;;;;;;5005604;28;20033;-63
2023/05/22 00:18:52;;;;;;;11.80;7.60;;;16.20;73.10;;;;;;5005964;28;20436;-63
2023/05/22 00:21:18;;;;;;;10.40;7.28;;;16.10;73.20;;;;;;5008262;28;20025;-63
2023/05/22 00:23:44;;;;;;;9.38;7.28;;;16.10;73.50;;;;;;5006368;28;20045;-63
2023/05/22 00:26:13;;;;;;;13.30;7.57;;;16.00;73.70;;;;;;5009034;28;20108;-63
2023/05/22 00:28:39;;;;;;;10.13;7.35;;;16.00;73.90;;;;;;5006279;28;20033;-63
2023/05/22 00:31:04;;;;;;;11.98;7.28;;;16.00;74.00;;;;;;5006054;28;20476;-62
2023/05/22 00:33:30;;;;;;;8.15;7.35;;;15.90;74.10;;;;;;5006714;28;20026;-63
2023/05/22 00:35:55;;;;;;;9.25;7.20;;;15.90;74.10;;;;;;5006798;28;20042;-63
2023/05/22 00:38:32;;;;;;;9.35;7.72;;;15.90;74.00;;;;;;5008552;28;20048;-63
2023/05/22 00:40:59;;;;;;;9.32;7.35;;;15.90;74.90;;;;;;5006317;28;20041;-63
2023/05/22 00:43:26;;;;;;;9.27;7.22;;;15.90;74.30;;;;;;5010814;28;20037;-63
2023/05/22 00:45:53;;;;;;;10.57;7.85;;;15.90;74.40;;;;;;5010855;28;20041;-63
2023/05/22 00:48:19;;;;;;;9.50;7.55;;;15.80;74.40;;;;;;5012605;28;20531;-63
2023/05/22 00:50:45;;;;;;;8.90;7.97;;;15.70;74.40;;;;;;5011384;28;20045;-63
2023/05/22 00:53:12;;;;;;;8.77;7.20;;;15.70;74.50;;;;;;5010364;28;20509;-63
2023/05/22 00:55:37;;;;;;;10.05;7.45;;;15.70;74.60;;;;;;5010252;28;20156;-63
2023/05/22 00:58:06;;;;;;;9.43;7.53;;;15.70;74.70;;;;;;5010525;28;20436;-63
2023/05/22 01:00:36;;;;;;;8.57;7.53;;;15.60;75.00;;;;;;5008142;28;20493;-62
2023/05/22 01:03:04;;;;;;;9.02;7.68;;;15.60;75.10;;;;;;5005689;28;20037;-63
2023/05/22 01:05:30;;;;;;;11.25;7.90;;;15.50;75.20;;;;;;5008949;28;21616;-63
2023/05/22 01:07:56;;;;;;;9.10;7.95;;;15.60;75.10;;;;;;5009754;28;20131;-63
2023/05/22 01:10:22;;;;;;;11.88;7.93;;;15.50;75.10;;;;;;5010794;28;20041;-63
2023/05/22 01:13:17;;;;;;;9.70;7.80;;;15.50;75.40;;;;;;5007536;28;20175;-63
2023/05/22 01:15:54;;;;;;;9.93;7.65;;;15.50;76.50;;;;;;5009510;28;20516;-63
2023/05/22 01:19:08;;;;;;;9.45;7.38;;;15.50;75.90;;;;;;5011783;28;20040;-63
2023/05/22 01:22:22;;;;;;;8.27;7.43;;;15.50;76.30;;;;;;4986053;28;20124;-63
2023/05/22 01:25:30;;;;;;;9.48;7.70;;;15.50;75.90;;;;;;5014352;28;20080;-63
2023/05/22 01:28:23;;;;;;;8.95;7.60;;;15.50;76.50;;;;;;5013888;28;20068;-63
2023/05/22 01:31:01;;;;;;;9.10;7.85;;;15.50;76.20;;;;;;5012344;28;20030;-63
2023/05/22 01:33:32;;;;;;;9.30;7.95;;;15.50;75.50;;;;;;5010819;28;20041;-63
2023/05/22 01:36:00;;;;;;;8.75;7.90;;;15.50;75.80;;;;;;5010572;28;20076;-63
2023/05/22 01:38:27;;;;;;;8.52;7.63;;;15.50;75.90;;;;;;5010567;28;20026;-63
2023/05/22 01:40:53;;;;;;;8.52;7.63;;;15.50;76.00;;;;;;5013310;28;20054;-63
2023/05/22 01:43:19;;;;;;;11.45;7.97;;;15.50;76.00;;;;;;5010429;28;20025;-63
2023/05/22 01:45:45;;;;;;;9.55;7.85;;;15.50;76.00;;;;;;5010437;28;20477;-63
2023/05/22 01:48:11;;;;;;;8.45;7.55;;;15.50;76.00;;;;;;5013431;28;20128;-63
2023/05/22 01:50:38;;;;;;;9.35;7.95;;;15.50;76.00;;;;;;5010560;28;20128;-63
2023/05/22 01:53:31;;;;;;;9.52;7.55;;;15.60;76.10;;;;;;5010393;28;20121;-62
2023/05/22 01:56:04;;;;;;;10.63;7.68;;;15.60;76.60;;;;;;5014623;28;20037;-62
2023/05/22 01:58:45;;;;;;;10.23;7.50;;;15.60;76.00;;;;;;5013822;28;20038;-62
2023/05/22 02:01:13;;;;;;;9.23;7.57;;;15.60;76.60;;;;;;5008470;28;20033;-63
2023/05/22 02:03:40;;;;;;;9.32;7.90;;;15.70;75.80;;;;;;5014110;28;20046;-62
2023/05/22 02:06:09;;;;;;;8.52;7.45;;;15.70;75.90;;;;;;5010805;28;20103;-63
2023/05/22 02:08:39;;;;;;;8.75;7.85;;;15.70;76.00;;;;;;5011746;28;20098;-63
2023/05/22 02:11:06;;;;;;;8.77;7.65;;;15.70;76.30;;;;;;5008678;28;20125;-63
2023/05/22 02:13:32;;;;;;;10.05;8.25;;;15.70;76.10;;;;;;5006763;28;20037;-63
2023/05/22 02:16:00;;;;;;;9.32;8.38;;;15.70;76.10;;;;;;5007832;28;20033;-63
2023/05/22 02:18:29;;;;;;;11.25;8.52;;;15.70;76.50;;;;;;5008800;28;20072;-63
2023/05/22 02:20:59;;;;;;;9.65;8.65;;;15.70;76.50;;;;;;5007477;28;20061;-63
2023/05/22 02:23:25;;;;;;;11.10;9.70;;;15.70;76.80;;;;;;5009288;28;20042;-63
2023/05/22 02:25:50;;;;;;;11.40;9.40;;;15.70;76.70;;;;;;5013600;28;20061;-63
2023/05/22 02:28:16;;;;;;;13.68;9.88;;;15.60;76.80;;;;;;5011239;28;20480;-63
2023/05/22 02:30:42;;;;;;;10.77;9.27;;;15.70;77.00;;;;;;5013242;28;20263;-62
2023/05/22 02:33:08;;;;;;;12.77;9.40;;;15.60;77.00;;;;;;5014903;28;20034;-63
2023/05/22 02:35:34;;;;;;;11.93;9.07;;;15.60;77.00;;;;;;5008354;28;20365;-62
2023/05/22 02:38:00;;;;;;;12.82;8.98;;;15.60;77.10;;;;;;5007091;28;20108;-63
2023/05/22 02:40:26;;;;;;;10.25;8.38;;;15.60;77.10;;;;;;5011919;28;20041;-63
2023/05/22 02:42:51;;;;;;;9.85;8.85;;;15.70;77.30;;;;;;5011225;28;20033;-63
2023/05/22 02:45:17;;;;;;;9.52;8.52;;;15.60;77.10;;;;;;5004733;28;20092;-63
2023/05/22 02:47:43;;;;;;;9.88;8.73;;;15.70;77.20;;;;;;5014589;28;20045;-63
2023/05/22 02:50:09;;;;;;;10.02;8.93;;;15.60;77.20;;;;;;5010363;28;20029;-63
2023/05/22 02:52:35;;;;;;;10.20;8.57;;;15.60;77.20;;;;;;5008126;28;20029;-63
2023/05/22 02:55:03;;;;;;;10.60;9.20;;;15.60;77.10;;;;;;5010786;28;20048;-63
2023/05/22 02:57:28;;;;;;;10.05;8.75;;;15.60;77.20;;;;;;5011649;28;20095;-63
2023/05/22 02:59:56;;;;;;;10.55;8.85;;;15.60;77.20;;;;;;5013625;28;20456;-63
2023/05/22 03:02:24;;;;;;;11.05;8.80;;;15.60;77.20;;;;;;5009128;28;20048;-63
2023/05/22 03:04:50;;;;;;;11.32;9.20;;;15.60;77.20;;;;;;5007567;28;20046;-62
2023/05/22 03:07:15;;;;;;;11.23;9.10;;;15.60;77.30;;;;;;5011736;28;20402;-63
2023/05/22 03:09:41;;;;;;;15.52;9.10;;;15.60;77.30;;;;;;5009358;28;20124;-62
2023/05/22 03:12:07;;;;;;;10.52;9.05;;;15.50;77.30;;;;;;5006104;28;20673;-63
2023/05/22 03:14:33;;;;;;;11.73;9.10;;;15.50;77.50;;;;;;5009520;28;20034;-63
2023/05/22 03:16:59;;;;;;;12.75;9.27;;;15.50;77.70;;;;;;5010362;28;20467;-63
2023/05/22 03:19:25;;;;;;;12.68;9.52;;;15.40;77.70;;;;;;5010015;28;20498;-63
2023/05/22 03:21:50;;;;;;;11.05;8.25;;;15.40;77.90;;;;;;5007932;28;20026;-63
2023/05/22 03:24:16;;;;;;;10.52;9.10;;;15.40;78.00;;;;;;5008221;28;20041;-62
2023/05/22 03:26:42;;;;;;;10.13;8.90;;;15.40;78.00;;;;;;5009308;28;20042;-63
2023/05/22 03:29:08;;;;;;;11.90;9.40;;;15.30;78.10;;;;;;5011649;28;20509;-63
2023/05/22 03:31:35;;;;;;;12.50;9.05;;;15.40;78.20;;;;;;5008439;28;20048;-62
2023/05/22 03:34:01;;;;;;;10.73;9.57;;;15.30;78.40;;;;;;5008544;28;20034;-61
2023/05/22 03:36:27;;;;;;;10.68;9.57;;;15.30;78.30;;;;;;5010140;28;20073;-64
2023/05/22 03:38:53;;;;;;;11.85;8.98;;;15.30;78.50;;;;;;5007567;28;20148;-63
2023/05/22 03:41:18;;;;;;;10.30;9.02;;;15.20;78.60;;;;;;5006413;28;20058;-63
2023/05/22 03:43:45;;;;;;;11.38;9.43;;;15.20;78.70;;;;;;5008938;28;20116;-63
2023/05/22 03:46:10;;;;;;;14.13;9.73;;;15.20;78.90;;;;;;5005782;28;20037;-63
2023/05/22 03:48:37;;;;;;;10.57;9.48;;;15.20;78.80;;;;;;5011275;28;20048;-63
2023/05/22 03:51:03;;;;;;;12.48;9.55;;;15.20;79.00;;;;;;5006478;28;20037;-63
2023/05/22 03:53:28;;;;;;;10.85;9.73;;;15.10;79.00;;;;;;5014645;28;20405;-63
2023/05/22 03:55:58;;;;;;;10.65;9.48;;;15.10;78.90;;;;;;5014708;28;20549;-63
2023/05/22 03:58:26;;;;;;;10.73;9.57;;;15.10;79.00;;;;;;5015556;28;20030;-63
2023/05/22 04:00:59;;;;;;;13.25;9.63;;;15.20;79.10;;;;;;5015183;28;20429;-63
2023/05/22 04:03:26;;;;;;;11.70;9.70;;;15.20;79.00;;;;;;5013594;28;20103;-63
2023/05/22 04:05:51;;;;;;;14.80;9.15;;;15.30;79.00;;;;;;5014258;28;20120;-63
2023/05/22 04:08:17;;;;;;;11.95;9.35;;;15.30;78.90;;;;;;5005855;28;20025;-61
2023/05/22 04:10:45;;;;;;;12.70;9.85;;;15.30;78.90;;;;;;5004849;28;20045;-63
2023/05/22 04:13:14;;;;;;;13.20;10.57;;;15.30;79.10;;;;;;5011871;28;20033;-63
2023/05/22 04:15:44;;;;;;;14.55;11.18;;;15.40;79.10;;;;;;5005371;28;20620;-62
2023/05/22 04:18:10;;;;;;;15.57;11.35;;;15.40;79.20;;;;;;5004600;28;20107;-63
2023/05/22 04:20:36;;;;;;;16.08;11.93;;;15.40;79.30;;;;;;5006179;28;20034;-62
2023/05/22 04:23:02;;;;;;;14.82;12.05;;;15.40;79.40;;;;;;5006118;28;20039;-63
2023/05/22 04:25:28;;;;;;;16.55;12.57;;;15.50;79.80;;;;;;5006288;28;20034;-63
2023/05/22 04:27:54;;;;;;;16.35;12.10;;;15.50;80.10;;;;;;5005525;28;20481;-63
2023/05/22 04:30:20;;;;;;;17.95;12.40;;;15.60;80.10;;;;;;5014556;28;20053;-63
2023/05/22 04:32:46;;;;;;;15.70;12.80;;;15.60;80.20;;;;;;5012651;28;20030;-63
2023/05/22 04:35:12;;;;;;;18.17;12.75;;;15.60;80.30;;;;;;5013066;28;20040;-61
2023/05/22 04:37:44;;;;;;;17.00;12.88;;;15.60;80.20;;;;;;5014468;28;20061;-62
2023/05/22 04:40:11;;;;;;;16.90;13.55;;;15.70;80.50;;;;;;5017319;28;20088;-62
2023/05/22 04:42:37;;;;;;;16.63;13.32;;;15.70;80.70;;;;;;5017545;28;20394;-62
2023/05/22 04:45:04;;;;;;;19.48;13.02;;;15.80;80.90;;;;;;5016071;28;20033;-62
2023/05/22 04:47:33;;;;;;;20.45;14.10;;;15.80;80.80;;;;;;5019414;28;20034;-63
2023/05/22 04:49:59;;;;;;;25.98;16.05;;;15.90;80.80;;;;;;5018936;28;20366;-63
2023/05/22 04:52:25;;;;;;;21.38;15.45;;;15.90;80.60;;;;;;5015037;28;20048;-63
2023/05/22 04:54:51;;;;;;;18.70;14.15;;;16.00;80.80;;;;;;5018536;28;20073;-63
2023/05/22 04:57:20;;;;;;;19.83;13.85;;;16.00;80.70;;;;;;5019206;28;20061;-63
2023/05/22 04:59:47;;;;;;;27.98;19.95;;;16.10;80.90;;;;;;5017837;28;20092;-63
2023/05/22 05:02:13;;;;;;;25.70;19.02;;;16.20;81.10;;;;;;5018855;28;20501;-63
2023/05/22 05:04:39;;;;;;;18.85;15.48;;;16.20;81.20;;;;;;5017941;28;20036;-63
2023/05/22 05:07:05;;;;;;;20.27;15.23;;;16.30;81.30;;;;;;5017594;28;20151;-63
2023/05/22 05:09:31;;;;;;;21.83;15.63;;;16.40;81.30;;;;;;5017404;28;20176;-63
2023/05/22 05:11:57;;;;;;;19.17;15.10;;;16.50;81.50;;;;;;5017795;28;20541;-63
2023/05/22 05:14:23;;;;;;;17.30;14.02;;;16.60;81.50;;;;;;5017867;28;20049;-63
2023/05/22 05:16:50;;;;;;;20.13;14.00;;;16.70;81.30;;;;;;5015074;28;20034;-63
2023/05/22 05:19:22;;;;;;;14.52;12.05;;;16.80;81.30;;;;;;5017351;28;20048;-63
2023/05/22 05:21:48;;;;;;;21.00;12.50;;;16.90;81.00;;;;;;5014974;28;20145;-63
2023/05/22 05:24:16;;;;;;;18.90;12.38;;;17.00;80.90;;;;;;5016551;28;20540;-63
2023/05/22 05:26:41;;;;;;;16.33;12.15;;;17.10;80.90;;;;;;5015831;28;20037;-63
2023/05/22 05:29:07;;;;;;;14.63;11.43;;;17.30;80.90;;;;;;5018814;28;20045;-63
2023/05/22 05:31:32;;;;;;;14.95;11.18;;;17.40;80.80;;;;;;5016825;28;20030;-63
2023/05/22 05:33:58;;;;;;;12.35;11.05;;;17.50;80.70;;;;;;5016033;28;20140;-62
2023/05/22 05:36:24;;;;;;;12.88;11.18;;;17.60;80.50;;;;;;5014758;28;20022;-62
2023/05/22 05:38:50;;;;;;;12.75;10.65;;;17.60;80.00;;;;;;5017049;28;20033;-62
2023/05/22 05:41:15;;;;;;;12.77;10.50;;;17.80;79.80;;;;;;5017285;28;20077;-63
2023/05/22 05:43:41;;;;;;;12.63;10.90;;;18.00;79.90;;;;;;5015919;28;20045;-63
2023/05/22 05:46:07;;;;;;;14.55;10.95;;;18.10;79.80;;;;;;5017853;28;20034;-63
2023/05/22 05:48:32;;;;;;;16.45;11.18;;;18.20;79.40;;;;;;5015904;28;20590;-63
2023/05/22 05:50:58;;;;;;;13.85;10.65;;;18.30;79.10;;;;;;5016958;28;20117;-63
2023/05/22 05:53:23;;;;;;;11.73;10.52;;;18.40;78.70;;;;;;5014662;28;20048;-62
2023/05/22 05:55:49;;;;;;;14.75;11.90;;;18.60;78.60;;;;;;5017434;28;20113;-63
2023/05/22 05:58:15;;;;;;;12.95;10.75;;;18.60;77.90;;;;;;5019759;28;20037;-63
2023/05/22 06:00:41;;;;;;;12.77;11.43;;;18.70;77.50;;;;;;5016480;28;20401;-62
2023/05/22 06:03:06;;;;;;;13.90;10.85;;;18.80;77.20;;;;;;5015679;28;20040;-63
2023/05/22 06:05:32;;;;;;;12.70;10.73;;;18.80;76.80;;;;;;5014961;28;20038;-63
2023/05/22 06:07:57;;;;;;;13.90;10.88;;;18.90;76.60;;;;;;5015648;28;20096;-63
2023/05/22 06:10:23;;;;;;;15.45;11.15;;;18.90;76.50;;;;;;5018714;28;20038;-63
2023/05/22 06:12:49;;;;;;;10.80;9.68;;;19.00;76.40;;;;;;5016591;28;20041;-63
2023/05/22 06:15:15;;;;;;;10.90;9.77;;;19.00;76.20;;;;;;5014909;28;20034;-63
2023/05/22 06:17:40;;;;;;;14.55;10.27;;;19.10;76.10;;;;;;5015755;28;20127;-63
2023/05/22 06:20:07;;;;;;;14.98;10.38;;;19.20;76.10;;;;;;5017647;28;20033;-63
2023/05/22 06:22:33;;;;;;;13.90;9.57;;;19.20;76.10;;;;;;5014074;28;20034;-63
2023/05/22 06:24:58;;;;;;;10.82;9.07;;;19.20;75.70;;;;;;5015479;28;20397;-63
2023/05/22 06:27:26;;;;;;;10.02;8.90;;;19.30;75.30;;;;;;5016685;28;20117;-63
2023/05/22 06:29:52;;;;;;;10.13;9.07;;;19.30;75.00;;;;;;5016500;28;20057;-63
2023/05/22 06:32:18;;;;;;;12.85;8.93;;;19.30;74.60;;;;;;5015331;28;20041;-63
2023/05/22 06:34:45;;;;;;;9.13;8.23;;;19.30;74.30;;;;;;5016718;28;21117;-62
2023/05/22 06:37:11;;;;;;;10.98;8.57;;;19.20;74.00;;;;;;5014402;28;20033;-63
2023/05/22 06:39:37;;;;;;;8.95;7.97;;;19.30;74.00;;;;;;5014477;28;20037;-62
2023/05/22 06:42:03;;;;;;;10.05;8.70;;;19.20;73.70;;;;;;5015497;28;20030;-62
2023/05/22 06:44:29;;;;;;;11.55;8.20;;;19.30;73.50;;;;;;5015999;28;20061;-63
2023/05/22 06:46:55;;;;;;;9.27;8.05;;;19.30;73.50;;;;;;5016127;28;20116;-63
2023/05/22 06:49:20;;;;;;;9.43;7.82;;;19.30;73.50;;;;;;5015866;28;20042;-63
2023/05/22 06:51:46;;;;;;;8.65;7.75;;;19.30;73.20;;;;;;5012523;28;20041;-63
2023/05/22 06:54:12;;;;;;;9.60;8.60;;;19.30;73.20;;;;;;5013039;28;20062;-63
2023/05/22 06:56:39;;;;;;;10.02;8.73;;;19.30;73.00;;;;;;5015678;28;20084;-63
2023/05/22 06:59:05;;;;;;;13.82;8.30;;;19.30;73.00;;;;;;5016600;28;20040;-63
2023/05/22 07:01:31;;;;;;;9.55;8.55;;;19.30;73.20;;;;;;5013098;28;20034;-63
2023/05/22 07:03:59;;;;;;;10.70;8.85;;;19.30;73.30;;;;;;5013647;28;20053;-63
2023/05/22 07:06:25;;;;;;;11.43;7.90;;;19.30;73.20;;;;;;5014189;28;20068;-63
2023/05/22 07:08:50;;;;;;;13.00;8.82;;;19.30;73.20;;;;;;5014172;28;20060;-64
2023/05/22 07:11:16;;;;;;;11.02;8.32;;;19.30;73.40;;;;;;5013717;28;20564;-63
2023/05/22 07:13:41;;;;;;;16.20;8.38;;;19.30;73.20;;;;;;5013205;28;20054;-62
2023/05/22 07:16:07;;;;;;;13.02;8.50;;;19.40;73.20;;;;;;5015960;28;20081;-63
2023/05/22 07:18:32;;;;;;;11.73;8.25;;;19.40;73.10;;;;;;5015286;28;20500;-63
2023/05/22 07:20:58;;;;;;;12.27;8.88;;;19.40;73.10;;;;;;5013406;28;20117;-63
2023/05/22 07:23:23;;;;;;;14.25;8.43;;;19.40;72.90;;;;;;5013459;28;20042;-63
2023/05/22 07:25:49;;;;;;;16.05;8.82;;;19.40;73.00;;;;;;5014194;28;20065;-63
2023/05/22 07:28:15;;;;;;;15.80;9.35;;;19.40;73.10;;;;;;5014582;28;20535;-63
2023/05/22 07:30:41;;;;;;;9.73;8.57;;;19.50;73.10;;;;;;5014266;28;20045;-63
2023/05/22 07:33:06;;;;;;;9.45;8.20;;;19.50;73.00;;;;;;5015472;28;20086;-63
2023/05/22 07:35:32;;;;;;;9.73;8.27;;;19.50;73.10;;;;;;5014326;28;20540;-63
2023/05/22 07:37:58;;;;;;;11.52;8.23;;;19.50;73.30;;;;;;5013850;28;20057;-64
2023/05/22 07:40:23;;;;;;;12.82;8.82;;;19.60;73.60;;;;;;5016455;28;20433;-63
2023/05/22 07:42:49;;;;;;;15.05;8.75;;;19.70;73.60;;;;;;5014471;28;20049;-63
2023/05/22 07:45:14;;;;;;;10.23;8.68;;;19.70;73.50;;;;;;5015549;28;20037;-63
2023/05/22 07:47:40;;;;;;;11.30;8.20;;;19.80;73.40;;;;;;5014251;28;20036;-63
2023/05/22 07:50:06;;;;;;;11.50;8.70;;;19.80;73.30;;;;;;5014789;28;20455;-63
2023/05/22 07:52:32;;;;;;;15.82;8.57;;;19.90;73.10;;;;;;5012397;28;20367;-63
2023/05/22 07:54:57;;;;;;;14.77;8.10;;;20.00;73.20;;;;;;5014504;28;20048;-63
2023/05/22 07:57:23;;;;;;;11.25;8.00;;;20.10;73.20;;;;;;5014570;28;20041;-63
2023/05/22 07:59:49;;;;;;;11.45;8.88;;;20.20;73.30;;;;;;5015019;28;20034;-63
2023/05/22 08:02:16;;;;;;;10.15;8.75;;;20.30;72.60;;;;;;5014244;28;20049;-63
2023/05/22 08:04:43;;;;;;;12.60;8.82;;;20.30;72.50;;;;;;5013251;28;20030;-64
2023/05/22 08:07:09;;;;;;;10.45;8.82;;;20.40;72.50;;;;;;5014245;28;20052;-64
2023/05/22 08:09:35;;;;;;;9.55;8.55;;;20.50;72.40;;;;;;5015606;28;20131;-63
2023/05/22 08:12:01;;;;;;;9.98;8.23;;;20.60;72.70;;;;;;5012868;28;20497;-63
2023/05/22 08:14:27;;;;;;;9.25;8.25;;;20.70;72.50;;;;;;5016425;28;20038;-63
2023/05/22 08:16:52;;;;;;;13.75;8.50;;;20.90;72.20;;;;;;5013104;28;20296;-63
2023/05/22 08:19:18;;;;;;;12.23;8.43;;;21.00;71.40;;;;;;5013262;28;20057;-63
2023/05/22 08:21:43;;;;;;;11.95;8.18;;;21.10;71.20;;;;;;5013107;28;20034;-63
2023/05/22 08:24:09;;;;;;;16.77;8.30;;;21.20;71.30;;;;;;5014792;28;20041;-64
2023/05/22 08:26:35;;;;;;;12.55;8.50;;;21.40;70.90;;;;;;5014684;28;20045;-63
2023/05/22 08:29:00;;;;;;;9.75;8.45;;;21.50;70.90;;;;;;5013594;28;20501;-63
2023/05/22 08:31:28;;;;;;;8.85;7.93;;;21.60;70.00;;;;;;5014557;28;20041;-63
2023/05/22 08:34:01;;;;;;;11.63;8.48;;;21.80;69.20;;;;;;5013309;28;20054;-64
2023/05/22 08:36:28;;;;;;;9.85;8.15;;;21.90;69.10;;;;;;5011983;28;20638;-63
2023/05/22 08:38:57;;;;;;;10.52;8.38;;;22.00;68.80;;;;;;5014374;28;20037;-63
2023/05/22 08:41:22;;;;;;;11.70;8.30;;;22.20;68.50;;;;;;5014688;28;21196;-63
2023/05/22 08:43:48;;;;;;;11.45;8.40;;;22.30;68.40;;;;;;5012522;28;20117;-64
2023/05/22 08:46:16;;;;;;;11.02;8.68;;;22.40;68.30;;;;;;5014426;28;20054;-64
2023/05/22 08:48:43;;;;;;;10.50;8.43;;;22.50;67.80;;;;;;5013005;28;20042;-63
2023/05/22 08:51:13;;;;;;;10.18;8.55;;;22.60;67.90;;;;;;5012183;28;20465;-63
2023/05/22 08:53:41;;;;;;;11.88;8.68;;;22.80;67.40;;;;;;5012823;28;20218;-64
2023/05/22 08:56:09;;;;;;;12.90;8.65;;;22.80;67.40;;;;;;5010458;28;20041;-63
2023/05/22 08:58:36;;;;;;;10.25;7.93;;;23.00;66.70;;;;;;5015060;28;20501;-63
2023/05/22 09:01:04;;;;;;;8.38;7.50;;;23.00;66.20;;;;;;5012951;28;20038;-64
2023/05/22 09:03:33;;;;;;;11.85;9.40;;;23.10;66.40;;;;;;5011696;28;20041;-63
2023/05/22 09:06:00;;;;;;;11.07;9.68;;;23.30;66.40;;;;;;5014110;28;20041;-63
2023/05/22 09:08:27;;;;;;;10.13;9.13;;;23.40;66.00;;;;;;5011161;28;20072;-63
2023/05/22 09:10:54;;;;;;;12.15;10.23;;;23.50;65.80;;;;;;5012613;28;20401;-64
2023/05/22 09:13:28;;;;;;;11.55;10.02;;;23.60;65.30;;;;;;5014056;28;20033;-64
2023/05/22 09:16:11;;;;;;;9.52;8.63;;;23.70;65.00;;;;;;5009766;28;20397;-63
2023/05/22 09:18:45;;;;;;;9.60;8.52;;;23.80;64.10;;;;;;5011930;28;20111;-63
2023/05/22 09:21:12;;;;;;;11.68;10.20;;;23.90;64.10;;;;;;5014108;28;20025;-64
2023/05/22 09:23:38;;;;;;;10.82;8.77;;;24.00;63.60;;;;;;5014735;28;20413;-64
2023/05/22 09:26:03;;;;;;;10.70;9.60;;;24.10;64.20;;;;;;5016150;28;20034;-63
2023/05/22 09:28:34;;;;;;;14.15;10.05;;;24.20;62.80;;;;;;5015035;28;20117;-64
2023/05/22 09:31:00;;;;;;;11.13;9.68;;;24.30;62.30;;;;;;5016505;28;20047;-64
2023/05/22 09:33:27;;;;;;;10.02;9.02;;;24.40;62.30;;;;;;5018842;28;20568;-64
2023/05/22 09:35:53;;;;;;;10.35;8.93;;;24.50;61.90;;;;;;5014554;28;20030;-63
2023/05/22 09:38:22;;;;;;;12.90;9.82;;;24.50;61.00;;;;;;5016993;28;20523;-64
2023/05/22 09:40:52;;;;;;;9.60;8.50;;;24.60;60.00;;;;;;5015070;28;20148;-63
2023/05/22 09:43:17;;;;;;;11.18;8.98;;;24.60;59.70;;;;;;5016115;28;20510;-63
2023/05/22 09:45:43;;;;;;;11.57;9.38;;;24.70;60.30;;;;;;5017499;28;20045;-63
2023/05/22 09:48:09;;;;;;;11.50;9.10;;;24.70;60.10;;;;;;5017478;28;20052;-63
2023/05/22 09:50:41;;;;;;;9.90;8.90;;;24.70;59.50;;;;;;5014322;28;20046;-63
2023/05/22 09:53:09;;;;;;;12.10;8.43;;;24.80;59.20;;;;;;5018670;28;20034;-63
2023/05/22 09:55:39;;;;;;;10.07;9.07;;;24.80;59.60;;;;;;5019112;28;20042;-63
2023/05/22 09:58:08;;;;;;;11.63;9.05;;;24.90;59.00;;;;;;5018623;28;20037;-63
2023/05/22 10:00:35;;;;;;;9.60;8.60;;;24.90;59.10;;;;;;5018156;28;20586;-62
2023/05/22 10:03:17;;;;;;;10.93;9.50;;;25.00;59.00;;;;;;5018238;28;20037;-63
2023/05/22 10:05:47;;;;;;;10.88;8.70;;;25.00;58.60;;;;;;5018590;28;20509;-63
2023/05/22 10:08:40;;;;;;;10.02;8.13;;;25.10;59.10;;;;;;5015315;28;20030;-63
2023/05/22 10:11:07;;;;;;;9.20;8.25;;;25.20;59.00;;;;;;5015678;28;20556;-63
2023/05/22 10:13:34;;;;;;;8.23;7.43;;;25.30;59.40;;;;;;5016001;28;20116;-63
2023/05/22 10:16:01;;;;;;;8.55;7.75;;;25.40;59.20;;;;;;5016638;28;20038;-63
2023/05/22 10:18:28;;;;;;;7.70;7.05;;;25.60;59.30;;;;;;5015036;28;20055;-64
2023/05/22 10:20:54;;;;;;;8.32;7.47;;;25.70;58.80;;;;;;5016129;28;20030;-63
2023/05/22 10:23:21;;;;;;;7.63;6.82;;;25.80;58.10;;;;;;5016436;28;20040;-63
2023/05/22 10:25:48;;;;;;;7.38;6.68;;;25.90;57.80;;;;;;5013922;28;20523;-63
2023/05/22 10:28:31;;;;;;;6.82;5.95;;;26.00;57.60;;;;;;5015691;28;20148;-63
2023/05/22 10:31:17;;;;;;;9.55;6.13;;;26.10;54.40;;;;;;5013916;28;20174;-63
2023/05/22 10:33:55;;;;;;;8.20;6.30;;;26.10;53.40;;;;;;5004596;28;20275;-63
2023/05/22 10:36:32;;;;;;;7.55;6.40;;;26.10;54.30;;;;;;5012408;28;20034;-63
2023/05/22 10:39:47;;;;;;;8.35;6.15;;;26.20;55.10;;;;;;5015113;28;20042;-63
2023/05/22 10:42:13;;;;;;;7.07;6.38;;;26.20;55.20;;;;;;4992482;28;20038;-63
2023/05/22 10:44:39;;;;;;;7.50;6.80;;;26.30;56.00;;;;;;4994394;28;20046;-63
2023/05/22 10:47:12;;;;;;;7.15;6.07;;;26.40;56.10;;;;;;5006761;28;20043;-63
2023/05/22 10:49:44;;;;;;;6.90;6.22;;;26.40;55.00;;;;;;5016812;28;20034;-63
2023/05/22 10:52:10;;;;;;;8.82;7.32;;;26.50;54.30;;;;;;5011098;28;20048;-63
2023/05/22 10:54:39;;;;;;;6.80;6.15;;;26.50;53.90;;;;;;5016148;28;20180;-63
2023/05/22 10:57:10;;;;;;;6.75;6.03;;;26.50;54.40;;;;;;5017960;28;20037;-63
2023/05/22 10:59:35;;;;;;;9.07;6.60;;;26.60;53.80;;;;;;5016723;28;20034;-64
2023/05/22 11:02:04;;;;;;;13.35;6.78;;;26.60;54.20;;;;;;5017814;28;20487;-63
2023/05/22 11:04:29;;;;;;;6.80;6.10;;;26.60;53.40;;;;;;5015688;28;20589;-63
2023/05/22 11:07:03;;;;;;;6.03;5.45;;;26.70;53.30;;;;;;5013568;28;20116;-63
2023/05/22 11:09:33;;;;;;;6.50;5.88;;;26.70;52.40;;;;;;5016253;28;20117;-64
2023/05/22 11:12:25;;;;;;;5.75;5.20;;;26.70;53.20;;;;;;5015169;28;20042;-63
2023/05/22 11:14:51;;;;;;;5.82;5.32;;;26.70;51.50;;;;;;5017246;28;20556;-63
2023/05/22 11:17:29;;;;;;;5.15;4.75;;;26.70;52.00;;;;;;5016159;28;20069;-64
2023/05/22 11:20:03;;;;;;;5.55;5.03;;;26.70;50.90;;;;;;5014545;28;20525;-64
2023/05/22 11:22:54;;;;;;;5.60;5.10;;;26.70;50.90;;;;;;5013757;28;20140;-64
2023/05/22 11:25:23;;;;;;;6.45;5.22;;;26.80;48.90;;;;;;5017626;28;20030;-63
2023/05/22 11:27:49;;;;;;;5.90;5.30;;;26.80;50.00;;;;;;5013926;28;20107;-64
2023/05/22 11:30:15;;;;;;;7.15;5.45;;;26.80;49.70;;;;;;5015643;28;20542;-64
2023/05/22 11:32:46;;;;;;;7.65;4.97;;;26.80;50.10;;;;;;5014795;28;20541;-64
2023/05/22 11:35:19;;;;;;;5.47;4.97;;;26.80;50.00;;;;;;5016279;28;20041;-64
2023/05/22 11:37:45;;;;;;;7.90;5.32;;;26.80;49.50;;;;;;5015938;28;20469;-64
2023/05/22 11:40:15;;;;;;;5.78;4.82;;;26.90;50.00;;;;;;5015191;28;20037;-64
2023/05/22 11:42:41;;;;;;;5.60;4.68;;;26.90;49.90;;;;;;5017266;28;20238;-63
2023/05/22 11:45:07;;;;;;;6.18;4.50;;;27.00;49.40;;;;;;5018438;28;20041;-63
2023/05/22 11:47:33;;;;;;;8.80;4.60;;;27.00;49.80;;;;;;5016531;28;20057;-64
2023/05/22 11:49:59;;;;;;;5.03;4.53;;;27.10;49.80;;;;;;5017513;28;20072;-63
2023/05/22 11:52:32;;;;;;;5.13;4.60;;;27.20;48.90;;;;;;5017639;28;20049;-63
2023/05/22 11:54:58;;;;;;;5.18;4.55;;;27.30;47.80;;;;;;5016722;28;20046;-63
2023/05/22 11:57:24;;;;;;;9.75;5.00;;;27.30;48.30;;;;;;5016746;28;20044;-63
2023/05/22 11:59:50;;;;;;;5.13;4.20;;;27.40;48.80;;;;;;5016952;28;20037;-63
2023/05/22 12:02:18;;;;;;;5.22;4.63;;;27.40;48.80;;;;;;5017013;28;20049;-64
2023/05/22 12:04:44;;;;;;;5.70;4.25;;;27.50;48.80;;;;;;5016080;28;20036;-64
2023/05/22 12:07:10;;;;;;;5.00;4.15;;;27.60;48.70;;;;;;5013968;28;20256;-63
2023/05/22 12:09:38;;;;;;;7.18;4.45;;;27.60;48.60;;;;;;5016448;28;20439;-63
2023/05/22 12:12:04;;;;;;;4.97;3.95;;;27.70;48.00;;;;;;5012117;28;20029;-63
2023/05/22 12:14:30;;;;;;;4.18;3.78;;;27.80;47.20;;;;;;5013452;28;20410;-64
2023/05/22 12:17:00;;;;;;;7.53;3.78;;;27.90;46.40;;;;;;5013927;28;20056;-64
2023/05/22 12:19:26;;;;;;;3.75;3.45;;;27.90;45.40;;;;;;5014306;28;20899;-63
2023/05/22 12:21:52;;;;;;;6.05;3.88;;;28.00;44.40;;;;;;5013688;28;20029;-64
2023/05/22 12:24:24;;;;;;;3.53;3.08;;;28.10;44.70;;;;;;5013344;28;20505;-64
2023/05/22 12:26:51;;;;;;;3.42;3.13;;;28.20;44.20;;;;;;5011861;28;20519;-64
2023/05/22 12:29:17;;;;;;;3.70;3.40;;;28.20;43.70;;;;;;5013886;28;20061;-64
2023/05/22 12:31:45;;;;;;;3.92;3.63;;;28.30;43.60;;;;;;5013995;28;20069;-64
2023/05/22 12:34:11;;;;;;;4.22;3.92;;;28.40;43.20;;;;;;5010916;28;20038;-64
2023/05/22 12:36:40;;;;;;;3.90;3.47;;;28.40;43.10;;;;;;5014106;28;20045;-64
2023/05/22 12:39:08;;;;;;;3.95;3.65;;;28.50;42.80;;;;;;5013406;28;20033;-63
2023/05/22 12:41:34;;;;;;;4.70;3.47;;;28.50;42.60;;;;;;5014226;28;20409;-63
2023/05/22 12:44:00;;;;;;;12.95;4.22;;;28.50;43.20;;;;;;5012817;28;20041;-64